Time;durP1;ratioP1;P1;durP2;ratioP2;P2;SDS_P1;SDS_P2;PMS_P1;PMS_P2;Temp;Humidity;BMP_temperature;BMP_pressure;BME280_temperature;BME280_humidity;BME280_pressure;Samples;Min_cycle;Max_cycle;Signal;HPM_P1;HPM_P2
2022/06/22 00:00:26;;;;;;;10.60;9.10;;;21.30;99.90;;;;;;4992918;28;20456;-60
2022/06/22 00:02:53;;;;;;;15.57;9.97;;;21.20;99.90;;;;;;4994012;28;20477;-60
2022/06/22 00:05:27;;;;;;;13.53;10.87;;;21.20;99.90;;;;;;4993448;28;20495;-59
2022/06/22 00:07:57;;;;;;;10.97;9.80;;;21.10;99.90;;;;;;4998036;28;20432;-60
2022/06/22 00:10:30;;;;;;;12.00;9.50;;;21.10;99.90;;;;;;4992027;28;21706;-60
2022/06/22 00:12:58;;;;;;;12.60;9.63;;;21.00;99.90;;;;;;4994184;28;21003;-60
2022/06/22 00:15:40;;;;;;;12.00;9.60;;;21.00;99.90;;;;;;4995035;28;20480;-60
2022/06/22 00:18:24;;;;;;;16.50;9.80;;;20.90;99.90;;;;;;4989006;28;20965;-59
2022/06/22 00:20:52;;;;;;;14.10;9.80;;;20.90;99.90;;;;;;4986544;28;20487;-60
2022/06/22 00:23:40;;;;;;;11.63;10.07;;;20.90;99.90;;;;;;4989624;28;20467;-60
2022/06/22 00:26:24;;;;;;;12.87;9.73;;;20.90;99.90;;;;;;4988119;28;20558;-60
2022/06/22 00:28:53;;;;;;;17.67;9.80;;;20.90;99.90;;;;;;4994862;28;20428;-60
2022/06/22 00:31:42;;;;;;;12.73;10.43;;;20.90;99.90;;;;;;4986435;28;20456;-60
2022/06/22 00:34:11;;;;;;;13.60;10.30;;;20.90;99.90;;;;;;4992965;28;20446;-60
2022/06/22 00:37:13;;;;;;;13.40;10.47;;;20.90;99.90;;;;;;4984189;28;20842;-60
2022/06/22 00:39:48;;;;;;;14.93;11.00;;;20.80;99.90;;;;;;4980838;28;20449;-59
2022/06/22 00:42:18;;;;;;;12.50;10.30;;;20.80;99.90;;;;;;4986994;28;20979;-59
2022/06/22 00:44:53;;;;;;;13.20;9.53;;;20.80;99.90;;;;;;4985599;28;20817;-60
2022/06/22 00:47:24;;;;;;;12.40;9.97;;;20.70;99.90;;;;;;4992597;28;20424;-59
2022/06/22 00:49:52;;;;;;;12.77;9.90;;;20.70;99.90;;;;;;4969438;28;20433;-59
2022/06/22 00:52:32;;;;;;;16.93;10.93;;;20.70;99.90;;;;;;4996368;28;20436;-59
2022/06/22 00:54:58;;;;;;;12.27;10.27;;;20.60;99.90;;;;;;4993986;28;21985;-60
2022/06/22 00:57:31;;;;;;;12.90;10.00;;;20.60;99.90;;;;;;4988695;28;21203;-59
2022/06/22 01:00:22;;;;;;;12.30;9.70;;;20.60;99.90;;;;;;4989117;28;20229;-59
2022/06/22 01:02:59;;;;;;;12.53;11.10;;;20.60;99.90;;;;;;4989529;28;21113;-59
2022/06/22 01:05:59;;;;;;;11.67;10.50;;;20.60;99.90;;;;;;4994971;28;20423;-60
2022/06/22 01:08:50;;;;;;;14.03;10.40;;;20.60;99.90;;;;;;4994461;28;20443;-60
2022/06/22 01:14:39;;;;;;;14.73;10.53;;;20.60;99.90;;;;;;4983044;28;20430;-60
2022/06/22 01:17:12;;;;;;;19.30;10.77;;;20.60;99.90;;;;;;4982015;28;20439;-60
2022/06/22 01:19:58;;;;;;;12.00;9.80;;;20.50;99.90;;;;;;4985042;28;20969;-60
2022/06/22 01:22:48;;;;;;;17.27;10.90;;;20.50;99.90;;;;;;4987893;28;20704;-60
2022/06/22 01:25:13;;;;;;;12.90;10.80;;;20.50;99.90;;;;;;4988578;28;20431;-60
2022/06/22 01:27:44;;;;;;;12.43;10.53;;;20.50;99.90;;;;;;4989263;28;20427;-59
2022/06/22 01:30:35;;;;;;;13.60;10.77;;;20.50;99.90;;;;;;4977086;28;20210;-60
2022/06/22 01:33:23;;;;;;;13.27;10.70;;;20.50;99.90;;;;;;4979786;28;20439;-60
2022/06/22 01:35:55;;;;;;;13.23;11.83;;;20.50;99.90;;;;;;4984018;28;20978;-60
2022/06/22 01:38:24;;;;;;;14.20;10.90;;;20.50;99.90;;;;;;4984022;28;20436;-60
2022/06/22 01:41:11;;;;;;;15.27;11.20;;;20.40;99.90;;;;;;4982646;28;20454;-60
2022/06/22 01:43:54;;;;;;;14.60;11.47;;;20.40;99.90;;;;;;4982450;28;20464;-60
2022/06/22 01:46:26;;;;;;;16.00;11.17;;;20.40;99.90;;;;;;4980290;28;20527;-60
2022/06/22 01:49:03;;;;;;;14.70;11.80;;;20.40;99.90;;;;;;4981382;28;20465;-60
2022/06/22 01:51:32;;;;;;;16.90;12.63;;;20.30;99.90;;;;;;4987564;28;20547;-60
2022/06/22 01:54:18;;;;;;;20.47;13.17;;;20.30;99.90;;;;;;4989304;28;20471;-60
2022/06/22 01:56:53;;;;;;;14.13;12.53;;;20.30;99.90;;;;;;4987832;28;20447;-59
2022/06/22 01:59:31;;;;;;;16.13;12.07;;;20.30;99.90;;;;;;4988944;28;20442;-61
2022/06/22 02:02:14;;;;;;;18.60;12.50;;;20.30;99.90;;;;;;4989383;28;20543;-60
2022/06/22 02:04:47;;;;;;;16.63;12.20;;;20.20;99.90;;;;;;4982280;28;20444;-59
2022/06/22 02:07:45;;;;;;;15.87;12.60;;;20.20;99.90;;;;;;4990292;28;20665;-61
2022/06/22 02:10:42;;;;;;;18.03;11.90;;;20.20;99.90;;;;;;4985532;28;20452;-60
2022/06/22 02:13:23;;;;;;;21.37;12.37;;;20.10;99.90;;;;;;4985856;28;20450;-59
2022/06/22 02:16:26;;;;;;;21.00;12.20;;;20.10;99.90;;;;;;4985975;28;20498;-60
2022/06/22 02:18:58;;;;;;;14.40;11.30;;;20.20;99.90;;;;;;4983420;28;20539;-60
2022/06/22 02:21:43;;;;;;;14.40;10.67;;;20.20;99.90;;;;;;4989954;28;20467;-60
2022/06/22 02:24:18;;;;;;;17.00;11.60;;;20.10;99.90;;;;;;4988220;28;20455;-59
2022/06/22 02:26:57;;;;;;;19.93;10.70;;;20.10;99.90;;;;;;4964052;28;20447;-60
2022/06/22 02:29:33;;;;;;;15.10;10.30;;;20.10;99.90;;;;;;4985579;28;20424;-60
2022/06/22 02:32:05;;;;;;;13.30;11.00;;;20.10;99.90;;;;;;4981058;28;20427;-59
2022/06/22 02:34:33;;;;;;;15.30;11.00;;;20.00;99.90;;;;;;4983723;28;20514;-59
2022/06/22 02:37:01;;;;;;;17.20;11.77;;;20.00;99.90;;;;;;4983083;28;20456;-60
2022/06/22 02:39:29;;;;;;;12.73;11.23;;;20.00;99.90;;;;;;4983068;28;20463;-60
2022/06/22 02:45:03;;;;;;;23.83;12.00;;;19.90;99.90;;;;;;4928024;29;20517;-60
2022/06/22 02:47:47;;;;;;;15.17;11.50;;;19.90;99.90;;;;;;4925473;29;20446;-60
2022/06/22 02:50:13;;;;;;;15.43;11.23;;;19.90;99.90;;;;;;4962229;28;20471;-59
2022/06/22 02:52:46;;;;;;;21.20;11.73;;;19.90;99.90;;;;;;4982670;28;20451;-60
2022/06/22 02:55:16;;;;;;;16.03;12.07;;;19.80;99.90;;;;;;4987432;28;20662;-60
2022/06/22 02:57:41;;;;;;;21.37;13.60;;;19.80;99.90;;;;;;4990029;28;20952;-60
2022/06/22 03:00:08;;;;;;;16.70;12.47;;;19.60;99.90;;;;;;4987070;28;20472;-59
2022/06/22 03:02:34;;;;;;;13.53;11.87;;;19.60;99.90;;;;;;4985292;28;20196;-60
2022/06/22 03:05:00;;;;;;;15.00;12.23;;;19.60;99.90;;;;;;4985171;28;20436;-60
2022/06/22 03:07:28;;;;;;;12.13;10.90;;;19.50;99.90;;;;;;4985969;28;20429;-60
2022/06/22 03:09:54;;;;;;;17.47;12.20;;;19.50;99.90;;;;;;4986469;28;20456;-60
2022/06/22 03:12:20;;;;;;;15.83;11.73;;;19.50;99.90;;;;;;4976495;28;20971;-61
2022/06/22 03:14:58;;;;;;;22.33;11.80;;;19.50;99.90;;;;;;4985972;28;20455;-60
2022/06/22 03:17:39;;;;;;;15.90;11.93;;;19.50;99.90;;;;;;4986522;28;21097;-60
2022/06/22 03:20:08;;;;;;;13.57;10.90;;;19.50;99.90;;;;;;4966834;28;20551;-60
2022/06/22 03:22:38;;;;;;;14.93;12.03;;;19.40;99.90;;;;;;4985970;28;20471;-60
2022/06/22 03:25:32;;;;;;;17.67;11.43;;;19.40;99.90;;;;;;4986110;28;20439;-60
2022/06/22 03:28:03;;;;;;;15.10;11.80;;;19.40;99.90;;;;;;4996408;28;20429;-60
2022/06/22 03:31:05;;;;;;;19.93;12.70;;;19.40;99.90;;;;;;4987580;28;20484;-61
2022/06/22 03:33:43;;;;;;;14.80;12.17;;;19.40;99.90;;;;;;4976211;28;20451;-60
2022/06/22 03:36:19;;;;;;;17.50;12.20;;;19.30;99.90;;;;;;4981920;28;20436;-60
2022/06/22 03:38:50;;;;;;;20.13;12.80;;;19.40;99.90;;;;;;4986654;28;20442;-60
2022/06/22 03:41:21;;;;;;;15.10;12.93;;;19.40;99.90;;;;;;4986200;28;20490;-60
2022/06/22 03:43:55;;;;;;;13.93;12.40;;;19.40;99.90;;;;;;4986592;28;20471;-60
2022/06/22 03:46:50;;;;;;;15.80;12.60;;;19.30;99.90;;;;;;4973072;28;20431;-60
2022/06/22 03:49:15;;;;;;;15.60;12.60;;;19.40;99.90;;;;;;4988311;28;20466;-60
2022/06/22 03:51:50;;;;;;;17.10;12.50;;;19.40;99.90;;;;;;4982766;28;21054;-54
2022/06/22 03:54:57;;;;;;;13.90;11.50;;;19.50;99.90;;;;;;4978320;28;20586;-59
2022/06/22 03:57:26;;;;;;;16.27;12.07;;;19.50;99.90;;;;;;4979412;28;20436;-57
2022/06/22 03:59:53;;;;;;;14.00;11.37;;;19.60;99.90;;;;;;4976527;28;20530;-58
2022/06/22 04:02:19;;;;;;;17.30;12.07;;;19.60;99.90;;;;;;4987678;28;20467;-57
2022/06/22 04:04:49;;;;;;;14.73;12.63;;;19.70;99.90;;;;;;4984549;28;20431;-58
2022/06/22 04:07:15;;;;;;;18.03;12.10;;;19.70;99.90;;;;;;4995330;28;20431;-60
2022/06/22 04:09:49;;;;;;;19.60;11.50;;;19.70;99.90;;;;;;4981762;28;20459;-60
2022/06/22 04:12:41;;;;;;;18.47;11.40;;;19.70;99.90;;;;;;4978884;28;20184;-57
2022/06/22 04:15:25;;;;;;;16.20;11.20;;;19.70;99.90;;;;;;4980173;28;20451;-60
2022/06/22 04:17:56;;;;;;;19.43;12.83;;;19.70;99.90;;;;;;4978436;28;20439;-61
2022/06/22 04:20:56;;;;;;;16.80;13.00;;;19.70;99.90;;;;;;4983045;28;20578;-60
2022/06/22 04:23:31;;;;;;;16.43;12.77;;;19.70;99.90;;;;;;4997309;28;20979;-60
2022/06/22 04:26:25;;;;;;;18.73;12.83;;;19.60;99.90;;;;;;4975549;28;20454;-61
2022/06/22 04:28:59;;;;;;;15.43;13.40;;;19.60;99.90;;;;;;4986456;28;20528;-61
2022/06/22 04:31:31;;;;;;;17.00;14.03;;;19.60;99.90;;;;;;4981404;28;20442;-61
2022/06/22 04:34:03;;;;;;;18.00;12.83;;;19.60;99.90;;;;;;4982202;28;20519;-60
2022/06/22 04:36:41;;;;;;;21.53;12.83;;;19.50;99.90;;;;;;4982571;28;20511;-60
2022/06/22 04:39:19;;;;;;;13.83;11.47;;;19.50;99.90;;;;;;4981072;28;20463;-61
2022/06/22 04:41:46;;;;;;;16.87;12.47;;;19.40;99.90;;;;;;4978164;28;20547;-60
2022/06/22 04:44:22;;;;;;;21.33;13.47;;;19.40;99.90;;;;;;4984756;28;20467;-61
2022/06/22 04:46:51;;;;;;;17.60;12.43;;;19.50;99.90;;;;;;4977773;28;20439;-60
2022/06/22 04:49:23;;;;;;;15.10;11.70;;;19.50;99.90;;;;;;4984497;28;20417;-59
2022/06/22 04:51:56;;;;;;;14.90;12.30;;;19.50;99.90;;;;;;4980470;28;20455;-61
2022/06/22 04:54:25;;;;;;;17.00;11.40;;;19.50;99.90;;;;;;4975822;28;20441;-60
2022/06/22 04:56:54;;;;;;;15.63;11.20;;;19.50;99.90;;;;;;4975292;28;20814;-60
2022/06/22 04:59:21;;;;;;;17.80;11.70;;;19.50;99.90;;;;;;4978978;28;20428;-60
2022/06/22 05:01:50;;;;;;;18.03;10.23;;;19.50;99.90;;;;;;4981056;28;20502;-61
2022/06/22 05:04:41;;;;;;;21.00;10.97;;;19.50;99.90;;;;;;4987267;28;20471;-60
2022/06/22 05:07:28;;;;;;;14.43;11.20;;;19.50;99.90;;;;;;4983525;28;20539;-60
2022/06/22 05:10:08;;;;;;;16.57;12.07;;;19.40;99.90;;;;;;4974780;28;21049;-60
2022/06/22 05:13:02;;;;;;;16.80;12.50;;;19.40;99.90;;;;;;4974639;28;21479;-60
2022/06/22 05:15:37;;;;;;;15.13;10.67;;;19.40;99.90;;;;;;4971415;28;20433;-63
2022/06/22 05:18:09;;;;;;;14.50;10.73;;;19.40;99.90;;;;;;4989159;28;20478;-61
2022/06/22 05:20:42;;;;;;;16.27;10.80;;;19.30;99.90;;;;;;4988639;28;20451;-60
2022/06/22 05:23:08;;;;;;;12.03;10.73;;;19.30;99.90;;;;;;4991893;28;20459;-60
2022/06/22 05:25:35;;;;;;;16.63;10.90;;;19.30;99.90;;;;;;4971852;28;20427;-60
2022/06/22 05:28:06;;;;;;;16.97;10.70;;;19.30;99.90;;;;;;4975991;28;20528;-60
2022/06/22 05:30:55;;;;;;;19.83;11.10;;;19.40;99.90;;;;;;4987696;28;20475;-60
2022/06/22 05:33:25;;;;;;;16.77;12.00;;;19.40;99.90;;;;;;4991446;28;20440;-59
2022/06/22 05:35:55;;;;;;;15.00;11.30;;;19.40;99.90;;;;;;4990588;28;20408;-60
2022/06/22 05:38:22;;;;;;;15.47;10.50;;;19.50;99.90;;;;;;4989999;28;20444;-60
2022/06/22 05:40:50;;;;;;;16.23;11.10;;;19.60;99.90;;;;;;4991263;28;21007;-60
2022/06/22 05:43:17;;;;;;;18.10;10.77;;;19.60;99.90;;;;;;4992626;28;20813;-61
2022/06/22 05:45:47;;;;;;;15.70;10.43;;;19.60;99.90;;;;;;4981817;28;20511;-60
2022/06/22 05:48:38;;;;;;;18.30;11.50;;;19.70;99.90;;;;;;4996224;28;20542;-60
2022/06/22 05:51:31;;;;;;;15.83;9.87;;;19.70;99.90;;;;;;4984850;28;20452;-60
2022/06/22 05:54:00;;;;;;;18.27;10.63;;;19.70;99.90;;;;;;4988559;28;20437;-60
2022/06/22 05:56:31;;;;;;;25.37;10.53;;;19.70;99.90;;;;;;4986718;28;20479;-60
2022/06/22 05:59:06;;;;;;;17.10;9.83;;;19.70;99.90;;;;;;4988668;28;20450;-60
2022/06/22 06:01:43;;;;;;;11.87;8.50;;;19.80;99.90;;;;;;4989188;28;20943;-60
2022/06/22 06:04:24;;;;;;;11.67;8.40;;;19.80;99.90;;;;;;4982428;28;20464;-60
2022/06/22 06:06:52;;;;;;;14.50;9.10;;;19.90;99.90;;;;;;4981122;28;20474;-58
2022/06/22 06:09:23;;;;;;;14.53;8.87;;;19.90;99.90;;;;;;5000118;28;20860;-60
2022/06/22 06:12:02;;;;;;;16.10;8.50;;;19.90;99.90;;;;;;4988332;28;20446;-61
2022/06/22 06:14:40;;;;;;;10.63;8.80;;;19.90;99.90;;;;;;4990573;28;20979;-59
2022/06/22 06:17:17;;;;;;;13.33;8.70;;;19.90;99.90;;;;;;4980954;28;20961;-60
2022/06/22 06:19:48;;;;;;;16.07;9.20;;;19.80;99.90;;;;;;4986788;28;20446;-60
2022/06/22 06:22:13;;;;;;;13.23;8.43;;;19.80;99.90;;;;;;5000529;28;20953;-60
2022/06/22 06:27:40;;;;;;;17.20;9.63;;;19.90;99.90;;;;;;4983631;28;20660;-60
2022/06/22 06:30:27;;;;;;;14.93;8.30;;;19.90;99.90;;;;;;4991223;28;20421;-60
2022/06/22 06:32:55;;;;;;;13.20;8.93;;;19.90;99.90;;;;;;4999389;28;20439;-60
2022/06/22 06:35:44;;;;;;;14.03;9.07;;;20.00;99.90;;;;;;4988007;28;20464;-60
2022/06/22 06:38:12;;;;;;;25.37;9.30;;;20.00;99.90;;;;;;5004457;28;20411;-59
2022/06/22 06:40:48;;;;;;;14.97;10.43;;;20.00;99.90;;;;;;4987803;28;20448;-60
2022/06/22 06:43:13;;;;;;;25.53;11.13;;;20.10;99.90;;;;;;4986429;28;20555;-59
2022/06/22 06:45:40;;;;;;;19.57;9.13;;;20.10;99.90;;;;;;4991830;28;20938;-59
2022/06/22 06:48:12;;;;;;;13.43;9.37;;;20.20;99.90;;;;;;5002277;28;20192;-60
2022/06/22 06:50:41;;;;;;;14.73;8.27;;;20.20;99.90;;;;;;4992476;28;20451;-59
2022/06/22 06:53:10;;;;;;;17.50;10.30;;;20.30;99.90;;;;;;4979940;28;20976;-59
2022/06/22 06:55:59;;;;;;;18.97;10.40;;;20.30;99.90;;;;;;5009161;28;20408;-59
2022/06/22 06:58:55;;;;;;;21.93;10.07;;;20.40;99.90;;;;;;4987795;28;20443;-60
2022/06/22 07:01:24;;;;;;;15.30;9.43;;;20.50;99.90;;;;;;4985507;28;20521;-60
2022/06/22 07:03:58;;;;;;;22.60;10.97;;;20.60;99.90;;;;;;4987488;28;20463;-60
2022/06/22 07:06:25;;;;;;;14.50;8.50;;;20.60;99.90;;;;;;4988961;28;20449;-60
2022/06/22 07:09:07;;;;;;;15.40;8.33;;;20.60;99.90;;;;;;4983793;28;20433;-60
2022/06/22 07:12:20;;;;;;;21.33;9.47;;;20.70;99.90;;;;;;4975175;28;20543;-60
2022/06/22 07:14:46;;;;;;;14.73;9.23;;;20.80;99.90;;;;;;4974481;28;20539;-60
2022/06/22 07:17:17;;;;;;;17.80;9.60;;;20.90;99.90;;;;;;4980004;28;20535;-60
2022/06/22 07:19:58;;;;;;;16.13;9.70;;;21.00;99.90;;;;;;4980352;28;20196;-57
2022/06/22 07:22:35;;;;;;;17.63;9.97;;;21.00;99.90;;;;;;4982408;28;20468;-58
2022/06/22 07:25:25;;;;;;;16.10;8.93;;;21.00;99.90;;;;;;4990435;28;20422;-57
2022/06/22 07:28:23;;;;;;;20.67;9.00;;;21.00;99.90;;;;;;4989015;28;20446;-57
2022/06/22 07:31:04;;;;;;;19.47;9.53;;;21.00;99.90;;;;;;4976459;28;20452;-57
2022/06/22 07:33:45;;;;;;;21.80;10.07;;;20.90;99.90;;;;;;4980896;28;20439;-57
2022/06/22 07:36:25;;;;;;;18.80;9.80;;;20.90;99.90;;;;;;4983908;28;20448;-57
2022/06/22 07:39:11;;;;;;;17.50;9.43;;;20.80;99.90;;;;;;4981431;28;20431;-57
2022/06/22 07:41:37;;;;;;;28.63;9.23;;;20.80;99.90;;;;;;4987304;28;20453;-58
2022/06/22 07:44:06;;;;;;;16.00;7.57;;;20.80;99.90;;;;;;4983718;28;20523;-57
2022/06/22 07:46:58;;;;;;;11.60;6.90;;;20.80;99.90;;;;;;4986419;28;20350;-57
2022/06/22 07:49:39;;;;;;;13.60;7.53;;;20.80;99.90;;;;;;4989106;28;20444;-57
2022/06/22 07:52:11;;;;;;;10.33;6.40;;;20.90;99.90;;;;;;4994837;28;20439;-57
2022/06/22 07:54:36;;;;;;;13.77;7.80;;;20.90;99.90;;;;;;4986480;28;20511;-59
2022/06/22 07:57:32;;;;;;;22.73;9.47;;;21.00;99.90;;;;;;4981782;28;20519;-58
2022/06/22 08:00:13;;;;;;;15.47;7.67;;;20.90;99.90;;;;;;4983670;28;20217;-57
2022/06/22 08:02:41;;;;;;;12.90;8.40;;;20.90;99.90;;;;;;4976025;28;21090;-58
2022/06/22 08:05:14;;;;;;;20.43;9.87;;;20.90;99.90;;;;;;4984187;28;20848;-59
2022/06/22 08:07:50;;;;;;;19.50;8.90;;;20.90;99.90;;;;;;4978648;28;20436;-61
2022/06/22 08:10:41;;;;;;;12.10;8.10;;;20.90;99.90;;;;;;4989591;28;20452;-61
2022/06/22 08:13:18;;;;;;;21.53;7.50;;;20.90;99.90;;;;;;4981640;28;20954;-61
2022/06/22 08:15:49;;;;;;;12.03;6.50;;;20.90;99.90;;;;;;4962054;28;20444;-61
2022/06/22 08:18:16;;;;;;;12.10;7.10;;;20.80;99.90;;;;;;4977030;28;20472;-61
2022/06/22 08:20:45;;;;;;;14.87;7.00;;;20.80;99.90;;;;;;4976383;28;20527;-61
2022/06/22 08:23:18;;;;;;;9.17;6.53;;;20.70;99.90;;;;;;4990824;28;20559;-61
2022/06/22 08:25:45;;;;;;;12.27;6.53;;;20.70;99.90;;;;;;4983253;28;20472;-59
2022/06/22 08:28:15;;;;;;;12.67;6.43;;;20.60;99.90;;;;;;4985982;28;20486;-60
2022/06/22 08:30:41;;;;;;;11.43;6.10;;;20.60;99.90;;;;;;4992227;28;20452;-59
2022/06/22 08:33:12;;;;;;;17.60;7.17;;;20.50;99.90;;;;;;4981777;28;20503;-60
2022/06/22 08:35:49;;;;;;;13.93;6.13;;;20.50;99.90;;;;;;4972328;28;20229;-61
2022/06/22 08:38:40;;;;;;;11.90;6.33;;;20.40;99.90;;;;;;4988037;28;20489;-60
2022/06/22 08:41:18;;;;;;;15.60;6.67;;;20.40;99.90;;;;;;5000320;28;20458;-60
2022/06/22 08:43:59;;;;;;;12.27;6.90;;;20.40;99.90;;;;;;4993843;28;20476;-61
2022/06/22 08:46:28;;;;;;;13.30;6.83;;;20.40;99.90;;;;;;4973445;28;20465;-60
2022/06/22 08:49:16;;;;;;;15.93;7.60;;;20.40;99.90;;;;;;4976569;28;21253;-59
2022/06/22 08:52:19;;;;;;;18.10;7.20;;;20.30;99.90;;;;;;4991240;28;20455;-61
2022/06/22 08:55:06;;;;;;;12.80;6.60;;;20.30;99.90;;;;;;4988675;28;20437;-60
2022/06/22 08:57:47;;;;;;;13.87;6.60;;;20.30;99.90;;;;;;4979842;28;20439;-60
2022/06/22 09:00:43;;;;;;;15.40;7.63;;;20.30;99.90;;;;;;4979095;28;20485;-60
2022/06/22 09:03:30;;;;;;;15.50;6.60;;;20.30;99.90;;;;;;4984134;28;20468;-61
2022/06/22 09:06:10;;;;;;;13.63;6.60;;;20.20;99.90;;;;;;4990951;28;20423;-62
2022/06/22 09:09:11;;;;;;;11.47;6.20;;;20.20;99.90;;;;;;4975756;28;21130;-61
2022/06/22 09:12:03;;;;;;;17.50;6.27;;;20.00;99.90;;;;;;4982855;28;20536;-60
2022/06/22 09:14:49;;;;;;;17.77;6.57;;;20.00;99.90;;;;;;4974814;28;21013;-60
2022/06/22 09:17:34;;;;;;;18.30;5.90;;;19.90;99.90;;;;;;4983618;28;20443;-61
2022/06/22 09:20:19;;;;;;;23.47;6.70;;;19.70;99.90;;;;;;4988054;28;20471;-60
2022/06/22 09:22:56;;;;;;;27.03;5.83;;;19.60;99.90;;;;;;4984718;28;20459;-61
2022/06/22 09:25:37;;;;;;;22.73;5.20;;;19.50;99.90;;;;;;4993708;28;20435;-61
2022/06/22 09:28:21;;;;;;;23.17;5.27;;;19.30;99.90;;;;;;4987143;28;20690;-61
2022/06/22 09:31:02;;;;;;;24.70;6.10;;;19.20;99.90;;;;;;4983884;28;20506;-60
2022/06/22 09:33:41;;;;;;;26.90;4.83;;;19.20;99.90;;;;;;4983030;28;20447;-60
2022/06/22 09:36:19;;;;;;;22.23;4.80;;;19.10;99.90;;;;;;4990457;28;21074;-61
2022/06/22 09:39:14;;;;;;;21.10;5.43;;;19.10;99.90;;;;;;4971589;28;20436;-61
2022/06/22 09:41:39;;;;;;;11.80;4.03;;;19.10;99.90;;;;;;4979193;28;20472;-61
2022/06/22 09:44:05;;;;;;;27.73;5.20;;;19.00;99.90;;;;;;4984122;28;20518;-60
2022/06/22 09:46:59;;;;;;;25.97;5.47;;;19.00;99.90;;;;;;4989882;28;20181;-61
2022/06/22 09:49:50;;;;;;;24.20;4.90;;;19.00;99.90;;;;;;4981458;28;20188;-60
2022/06/22 09:52:34;;;;;;;14.17;4.97;;;19.00;99.90;;;;;;4992872;28;20440;-59
2022/06/22 09:58:25;;;;;;;25.50;5.27;;;19.10;99.90;;;;;;4979523;28;20435;-60
2022/06/22 10:01:15;;;;;;;17.33;4.90;;;19.20;99.90;;;;;;4981648;28;20464;-61
2022/06/22 10:04:06;;;;;;;20.33;5.13;;;19.20;99.90;;;;;;5005778;28;20927;-61
2022/06/22 10:07:02;;;;;;;25.60;5.30;;;19.30;99.90;;;;;;4979440;28;20433;-61
2022/06/22 10:09:28;;;;;;;16.00;4.83;;;19.30;99.90;;;;;;4990557;28;20524;-61
2022/06/22 10:12:31;;;;;;;23.77;5.70;;;19.40;99.90;;;;;;4992974;28;20588;-61
2022/06/22 10:15:15;;;;;;;14.13;4.90;;;19.30;99.90;;;;;;4988293;28;20184;-60
2022/06/22 10:17:52;;;;;;;28.53;4.83;;;19.30;99.90;;;;;;4979071;28;20901;-60
2022/06/22 10:20:29;;;;;;;25.30;6.23;;;19.30;99.90;;;;;;4971481;28;20474;-61
2022/06/22 10:23:17;;;;;;;30.13;5.13;;;19.30;99.90;;;;;;4987092;28;20513;-61
2022/06/22 10:26:09;;;;;;;23.10;5.33;;;19.40;99.90;;;;;;4989288;28;20832;-61
2022/06/22 10:28:35;;;;;;;19.00;5.50;;;19.40;99.90;;;;;;4980555;28;20508;-61
2022/06/22 10:31:50;;;;;;;21.53;5.00;;;19.50;99.90;;;;;;4983565;28;20463;-61
2022/06/22 10:34:34;;;;;;;19.77;4.43;;;19.50;99.90;;;;;;4941554;28;20453;-62
2022/06/22 10:37:25;;;;;;;19.80;5.00;;;19.60;99.90;;;;;;4978065;28;20943;-62
2022/06/22 10:40:09;;;;;;;20.63;5.87;;;19.70;99.90;;;;;;4993872;28;20439;-61
2022/06/22 10:45:46;;;;;;;21.30;5.30;;;19.80;99.90;;;;;;4986045;28;20448;-61
2022/06/22 10:48:20;;;;;;;21.97;4.93;;;19.90;99.90;;;;;;4978670;28;20468;-61
2022/06/22 10:51:05;;;;;;;23.17;5.33;;;20.00;99.90;;;;;;4995881;28;20430;-60
2022/06/22 10:53:39;;;;;;;24.60;5.60;;;20.00;99.90;;;;;;4986637;28;20461;-61
2022/06/22 10:56:32;;;;;;;25.53;6.60;;;20.10;99.90;;;;;;4974911;28;20453;-62
2022/06/22 10:59:00;;;;;;;18.17;5.80;;;20.20;99.90;;;;;;4987215;28;20441;-61
2022/06/22 11:01:44;;;;;;;19.27;5.50;;;20.20;99.90;;;;;;4984677;28;20486;-60
2022/06/22 11:04:16;;;;;;;21.57;6.53;;;20.30;99.90;;;;;;4981706;28;20473;-60
2022/06/22 11:07:18;;;;;;;19.07;5.40;;;20.50;99.90;;;;;;4977790;28;20494;-60
2022/06/22 11:10:19;;;;;;;23.70;5.53;;;20.80;99.90;;;;;;4974764;28;20449;-61
2022/06/22 11:13:20;;;;;;;24.77;6.43;;;21.10;99.90;;;;;;4944494;28;20519;-62
2022/06/22 11:16:09;;;;;;;28.37;6.33;;;21.30;99.90;;;;;;4976520;28;20427;-61
2022/06/22 11:18:50;;;;;;;20.90;5.70;;;21.40;99.90;;;;;;4977073;28;20436;-62
2022/06/22 11:21:34;;;;;;;23.50;6.57;;;21.50;99.90;;;;;;4975792;28;20451;-61
2022/06/22 11:24:15;;;;;;;24.10;6.03;;;21.60;99.90;;;;;;4980381;28;20457;-62
2022/06/22 11:33:09;;;;;;;26.60;6.40;;;22.20;99.90;;;;;;4978717;28;20433;-61
2022/06/22 11:36:12;;;;;;;25.23;6.20;;;22.20;99.90;;;;;;4981511;28;20428;-61
2022/06/22 11:38:50;;;;;;;18.53;5.90;;;22.00;99.90;;;;;;4980616;28;20428;-61
2022/06/22 11:41:34;;;;;;;26.90;6.60;;;21.80;99.90;;;;;;4989169;28;20464;-58
2022/06/22 11:44:21;;;;;;;24.63;5.90;;;21.80;99.90;;;;;;4978243;28;20467;-58
2022/06/22 11:46:52;;;;;;;24.27;6.70;;;21.80;99.90;;;;;;4984295;28;20947;-58
2022/06/22 11:49:31;;;;;;;20.07;5.90;;;21.80;99.90;;;;;;4981451;28;20432;-59
2022/06/22 11:52:19;;;;;;;19.53;6.40;;;21.80;99.90;;;;;;4982258;28;20454;-60
2022/06/22 11:55:16;;;;;;;24.37;6.50;;;21.90;99.90;;;;;;4981930;28;20489;-58
2022/06/22 11:58:02;;;;;;;16.43;6.30;;;21.90;99.90;;;;;;4977689;28;20483;-60
2022/06/22 12:00:59;;;;;;;17.30;7.23;;;21.90;99.90;;;;;;4969319;28;20551;-60
2022/06/22 12:03:49;;;;;;;24.57;6.60;;;22.00;99.90;;;;;;4964625;28;20564;-56
2022/06/22 12:07:10;;;;;;;21.13;5.90;;;22.20;99.90;;;;;;4968011;28;20479;-60
2022/06/22 12:09:58;;;;;;;17.47;5.60;;;22.30;99.90;;;;;;4947010;28;20441;-60
2022/06/22 12:12:58;;;;;;;13.63;6.30;;;22.40;99.90;;;;;;4956042;28;20434;-58
2022/06/22 12:15:43;;;;;;;16.77;6.20;;;22.40;99.90;;;;;;4971116;28;20441;-59
2022/06/22 12:18:18;;;;;;;16.83;6.43;;;22.30;99.90;;;;;;4978676;28;20531;-61
2022/06/22 12:20:49;;;;;;;18.70;5.30;;;22.30;99.90;;;;;;4970316;28;20551;-59
2022/06/22 12:23:36;;;;;;;22.13;6.13;;;22.10;99.90;;;;;;4970647;28;20551;-59
2022/06/22 12:26:08;;;;;;;13.90;5.17;;;22.00;99.90;;;;;;4973902;28;20453;-60
2022/06/22 12:28:53;;;;;;;16.23;5.37;;;21.90;99.90;;;;;;4977127;28;20580;-60
2022/06/22 12:31:20;;;;;;;20.23;6.07;;;21.80;99.90;;;;;;4989270;28;20988;-61
2022/06/22 12:34:03;;;;;;;20.23;6.37;;;21.80;99.90;;;;;;4975045;28;20621;-59
2022/06/22 12:36:51;;;;;;;14.43;4.83;;;21.60;99.90;;;;;;4980694;28;20559;-59
2022/06/22 12:39:39;;;;;;;15.00;5.60;;;21.60;99.90;;;;;;4973492;28;20441;-60
2022/06/22 12:42:14;;;;;;;20.90;5.27;;;21.60;99.90;;;;;;4975215;28;20495;-60
2022/06/22 12:44:58;;;;;;;14.90;6.03;;;21.70;99.90;;;;;;4972278;28;20538;-61
2022/06/22 12:47:42;;;;;;;15.77;5.43;;;21.80;99.90;;;;;;4972428;28;20433;-61
2022/06/22 12:50:35;;;;;;;23.33;5.13;;;21.80;99.90;;;;;;4971870;28;20525;-60
2022/06/22 12:53:24;;;;;;;12.73;5.37;;;21.90;99.90;;;;;;4975956;28;20855;-60
2022/06/22 12:56:12;;;;;;;13.20;6.10;;;21.90;99.90;;;;;;4973173;28;20492;-61
2022/06/22 12:58:47;;;;;;;10.37;5.00;;;21.90;99.90;;;;;;4957468;28;22342;-61
2022/06/22 13:01:13;;;;;;;20.30;5.17;;;21.90;99.90;;;;;;4972546;28;20467;-61
2022/06/22 13:03:44;;;;;;;28.33;6.10;;;21.80;99.90;;;;;;4973645;28;20464;-60
2022/06/22 13:06:09;;;;;;;19.03;5.37;;;21.90;99.90;;;;;;4970858;28;20654;-60
2022/06/22 13:08:36;;;;;;;17.33;5.80;;;21.90;99.90;;;;;;4971981;28;20472;-60
2022/06/22 13:11:07;;;;;;;17.67;5.67;;;22.00;99.90;;;;;;4972580;28;20189;-61
2022/06/22 13:13:39;;;;;;;14.47;4.90;;;22.20;99.90;;;;;;4963859;28;20441;-61
2022/06/22 13:16:32;;;;;;;26.73;6.10;;;22.40;99.90;;;;;;4976530;28;20440;-60
2022/06/22 13:19:16;;;;;;;11.73;5.50;;;22.50;99.90;;;;;;4971941;28;20456;-61
2022/06/22 13:22:07;;;;;;;19.07;5.67;;;22.60;99.90;;;;;;4975853;28;20479;-61
2022/06/22 13:24:48;;;;;;;15.20;5.23;;;22.90;99.90;;;;;;4974623;28;21180;-60
2022/06/22 13:27:28;;;;;;;15.80;5.00;;;22.90;99.90;;;;;;4975331;28;20491;-62
2022/06/22 13:30:18;;;;;;;16.80;4.87;;;23.00;99.90;;;;;;4973948;28;20464;-60
2022/06/22 13:32:54;;;;;;;13.07;4.87;;;22.90;97.00;;;;;;4973714;28;20471;-61
2022/06/22 13:35:39;;;;;;;18.33;5.17;;;22.80;99.90;;;;;;4973859;28;20433;-62
2022/06/22 13:38:53;;;;;;;17.97;5.10;;;22.80;99.90;;;;;;4972188;28;20469;-61
2022/06/22 13:42:00;;;;;;;13.80;5.30;;;22.70;99.80;;;;;;4971612;28;20459;-62
2022/06/22 13:44:50;;;;;;;13.50;4.90;;;22.70;99.90;;;;;;4970569;28;20479;-62
2022/06/22 13:47:16;;;;;;;15.97;4.23;;;22.60;99.90;;;;;;4977611;28;20467;-60
2022/06/22 13:50:14;;;;;;;9.53;4.33;;;22.60;99.90;;;;;;4973648;28;20483;-61
2022/06/22 13:52:49;;;;;;;18.37;5.17;;;22.60;99.90;;;;;;4972350;28;20240;-62
2022/06/22 13:55:30;;;;;;;22.97;6.67;;;22.60;99.90;;;;;;4978419;28;20471;-62